createdAt,value
2018-12-02T00:00:57.099Z,4.57
2018-12-02T00:03:26.037Z,5.50
2018-12-02T00:05:55.035Z,4.57
2018-12-02T00:08:39.737Z,4.17
2018-12-02T00:11:08.643Z,4.30
2018-12-02T00:13:37.576Z,5.40
2018-12-02T00:16:06.702Z,4.30
2018-12-02T00:18:36.234Z,4.10
2018-12-02T00:21:05.101Z,4.30
2018-12-02T00:23:34.038Z,4.07
2018-12-02T00:26:03.005Z,4.77
2018-12-02T00:28:31.896Z,4.70
2018-12-02T00:31:00.971Z,4.20
2018-12-02T00:33:29.810Z,4.80
2018-12-02T00:35:58.696Z,3.80
2018-12-02T00:38:27.584Z,3.90
2018-12-02T00:40:56.512Z,4.13
2018-12-02T00:43:25.457Z,4.40
2018-12-02T00:45:54.346Z,4.20
2018-12-02T00:48:23.321Z,4.77
2018-12-02T00:50:52.213Z,5.10
2018-12-02T00:53:21.116Z,4.70
2018-12-02T00:55:59.800Z,4.90
2018-12-02T00:58:28.755Z,4.30
2018-12-02T01:00:57.851Z,4.73
2018-12-02T01:03:26.826Z,4.50
2018-12-02T01:05:55.896Z,5.07
2018-12-02T01:08:24.802Z,4.30
2018-12-02T01:10:53.753Z,4.43
2018-12-02T01:13:22.727Z,4.33
2018-12-02T01:15:51.713Z,4.23
2018-12-02T01:18:22.172Z,4.73
2018-12-02T01:20:55.189Z,4.13
2018-12-02T01:23:29.080Z,4.67
2018-12-02T01:25:58.080Z,4.00
2018-12-02T01:28:27.001Z,4.27
2018-12-02T01:30:56.116Z,3.93
2018-12-02T01:33:26.028Z,4.10
2018-12-02T01:35:55.961Z,3.80
2018-12-02T01:38:25.877Z,4.13
2018-12-02T01:40:54.795Z,3.90
2018-12-02T01:43:23.716Z,3.87
2018-12-02T01:45:52.672Z,3.30
2018-12-02T01:48:21.664Z,3.50
2018-12-02T01:50:50.692Z,3.90
2018-12-02T01:53:19.633Z,3.80
2018-12-02T01:55:48.508Z,3.30
2018-12-02T02:02:22.974Z,3.37
2018-12-02T02:04:52.496Z,3.87
2018-12-02T02:07:21.397Z,3.90
2018-12-02T02:09:50.325Z,3.80
2018-12-02T02:12:19.671Z,4.23
2018-12-02T02:14:48.616Z,4.30
2018-12-02T02:17:17.514Z,4.00
2018-12-02T02:19:46.609Z,4.13
2018-12-02T02:22:15.508Z,3.93
2018-12-02T02:24:44.565Z,4.87
2018-12-02T02:27:13.451Z,4.20
2018-12-02T02:29:42.420Z,4.13
2018-12-02T02:32:11.346Z,4.73
2018-12-02T02:34:40.248Z,3.77
2018-12-02T02:37:09.408Z,4.67
2018-12-02T02:39:38.287Z,4.00
2018-12-02T02:42:07.318Z,4.90
2018-12-02T02:44:36.200Z,4.63
2018-12-02T02:47:05.419Z,4.17
2018-12-02T02:49:34.312Z,4.07
2018-12-02T02:52:03.291Z,4.47
2018-12-02T02:54:32.278Z,3.97
2018-12-02T02:57:01.245Z,4.10
2018-12-02T02:59:30.209Z,3.83
2018-12-02T03:01:59.285Z,3.90
2018-12-02T03:04:28.166Z,3.60
2018-12-02T03:06:58.137Z,4.17
2018-12-02T03:09:27.005Z,3.70
2018-12-02T03:11:56.035Z,2.77
2018-12-02T03:14:25.077Z,3.20
2018-12-02T03:16:54.146Z,3.33
2018-12-02T03:19:23.701Z,3.97
2018-12-02T03:21:52.898Z,3.50
2018-12-02T03:24:21.828Z,3.20
2018-12-02T03:26:50.847Z,2.83
2018-12-02T03:29:19.827Z,3.30
2018-12-02T03:31:48.709Z,3.50
2018-12-02T03:34:19.207Z,3.10
2018-12-02T03:36:49.524Z,3.30
2018-12-02T03:39:18.401Z,3.00
2018-12-02T03:41:47.264Z,3.47
2018-12-02T03:44:16.334Z,3.33
2018-12-02T03:46:45.195Z,2.97
2018-12-02T03:49:14.297Z,3.07
2018-12-02T03:51:43.265Z,2.77
2018-12-02T03:54:12.141Z,3.10
2018-12-02T03:56:45.277Z,3.57
2018-12-02T03:59:14.202Z,2.77
2018-12-02T04:01:43.375Z,2.83
2018-12-02T04:04:12.394Z,3.03
2018-12-02T04:06:41.304Z,3.00
2018-12-02T04:09:10.192Z,2.70
2018-12-02T04:11:39.357Z,2.83
2018-12-02T04:14:08.357Z,3.57
2018-12-02T04:16:37.369Z,3.00
2018-12-02T04:19:06.351Z,3.30
2018-12-02T04:21:35.281Z,3.13
2018-12-02T04:24:04.128Z,3.67
2018-12-02T04:26:33.060Z,3.60
2018-12-02T04:29:02.008Z,4.50
2018-12-02T04:31:31.229Z,2.93
2018-12-02T04:34:00.242Z,2.73
2018-12-02T04:36:29.143Z,3.70
2018-12-02T04:38:58.026Z,3.50
2018-12-02T04:41:26.873Z,4.10
2018-12-02T04:43:56.000Z,3.60
2018-12-02T04:46:24.971Z,3.70
2018-12-02T04:48:54.079Z,3.87
2018-12-02T04:51:22.929Z,3.53
2018-12-02T04:53:51.843Z,3.37
2018-12-02T04:56:20.749Z,3.20
2018-12-02T04:58:49.737Z,3.63
2018-12-02T05:01:18.900Z,3.90
2018-12-02T05:03:47.814Z,3.10
2018-12-02T05:06:16.838Z,3.47
2018-12-02T05:08:45.644Z,3.43
2018-12-02T05:11:14.916Z,3.67
2018-12-02T05:13:43.803Z,3.70
2018-12-02T05:16:12.925Z,3.13
2018-12-02T05:18:42.006Z,3.30
2018-12-02T05:21:11.011Z,2.80
2018-12-02T05:23:39.894Z,3.33
2018-12-02T05:26:08.794Z,3.20
2018-12-02T05:28:37.719Z,2.90
2018-12-02T05:31:06.763Z,3.30
2018-12-02T05:33:35.652Z,3.07
2018-12-02T05:36:04.598Z,3.00
2018-12-02T05:38:33.578Z,2.83
2018-12-02T05:41:02.864Z,2.97
2018-12-02T05:43:31.717Z,3.00
2018-12-02T05:46:00.609Z,3.00
2018-12-02T05:48:29.468Z,2.87
2018-12-02T05:50:58.327Z,3.00
2018-12-02T05:53:28.204Z,2.93
2018-12-02T05:55:57.200Z,3.10
2018-12-02T05:58:26.345Z,2.53
2018-12-02T06:00:55.236Z,2.93
2018-12-02T06:03:24.180Z,3.53
2018-12-02T06:05:53.128Z,2.83
2018-12-02T06:08:22.203Z,3.53
2018-12-02T06:10:51.367Z,3.33
2018-12-02T06:13:20.169Z,3.33
2018-12-02T06:15:49.155Z,3.07
2018-12-02T06:18:18.080Z,3.40
2018-12-02T06:20:46.955Z,3.20
2018-12-02T06:23:15.937Z,2.87
2018-12-02T06:25:46.581Z,3.00
2018-12-02T06:28:13.899Z,3.53
2018-12-02T06:30:42.776Z,3.10
2018-12-02T06:33:11.669Z,3.67
2018-12-02T06:35:41.531Z,3.10
2018-12-02T06:38:10.541Z,2.80
2018-12-02T06:40:39.675Z,3.47
2018-12-02T06:43:08.572Z,3.30
2018-12-02T06:45:37.443Z,3.00
2018-12-02T06:48:06.436Z,3.23
2018-12-02T06:50:35.294Z,3.47
2018-12-02T06:53:04.871Z,3.47
2018-12-02T06:55:55.143Z,3.40
2018-12-02T06:58:27.951Z,3.50
2018-12-02T07:01:10.192Z,3.43
2018-12-02T07:03:49.048Z,3.27
2018-12-02T07:06:18.370Z,3.60
2018-12-02T07:08:47.276Z,3.40
2018-12-02T07:11:16.156Z,3.40
2018-12-02T07:13:45.124Z,3.63
2018-12-02T07:16:13.978Z,3.90
2018-12-02T07:18:44.467Z,3.63
2018-12-02T07:21:16.709Z,4.23
2018-12-02T07:23:49.957Z,3.60
2018-12-02T07:26:18.856Z,4.03
2018-12-02T07:28:47.700Z,3.43
2018-12-02T07:31:16.588Z,3.70
2018-12-02T07:33:45.493Z,4.00
2018-12-02T07:36:34.326Z,3.70
2018-12-02T07:40:33.091Z,3.70
2018-12-02T07:43:02.636Z,3.70
2018-12-02T07:45:31.505Z,4.00
2018-12-02T07:48:00.699Z,3.87
2018-12-02T07:50:29.756Z,4.30
2018-12-02T07:52:58.789Z,3.67
2018-12-02T07:55:27.701Z,4.33
2018-12-02T07:57:58.223Z,3.57
2018-12-02T08:00:27.133Z,3.60
2018-12-02T08:02:56.105Z,3.03
2018-12-02T08:05:25.110Z,3.27
2018-12-02T08:07:54.034Z,2.80
2018-12-02T08:10:22.968Z,2.97
2018-12-02T08:12:51.877Z,2.83
2018-12-02T08:15:20.990Z,3.20
2018-12-02T08:17:50.072Z,2.80
2018-12-02T08:20:19.240Z,2.60
2018-12-02T08:22:51.447Z,2.70
2018-12-02T08:25:18.811Z,3.43
2018-12-02T08:27:48.093Z,3.27
2018-12-02T08:30:19.192Z,3.20
2018-12-02T08:32:48.158Z,2.80
2018-12-02T08:35:18.102Z,2.80
2018-12-02T08:37:50.234Z,3.10
2018-12-02T08:40:19.153Z,3.07
2018-12-02T08:42:48.234Z,2.80
2018-12-02T08:45:18.038Z,2.80
2018-12-02T08:47:46.971Z,3.20
2018-12-02T08:50:20.823Z,2.67
2018-12-02T08:52:51.500Z,2.83
2018-12-02T08:55:20.999Z,2.73
2018-12-02T08:57:51.256Z,2.77
2018-12-02T09:00:21.158Z,3.10
2018-12-02T09:02:55.352Z,4.00
2018-12-02T09:05:24.243Z,3.27
2018-12-02T09:07:54.185Z,3.97
2018-12-02T09:10:25.367Z,3.30
2018-12-02T09:13:02.489Z,3.50
2018-12-02T09:15:31.448Z,3.37
2018-12-02T09:18:00.416Z,3.30
2018-12-02T09:20:32.360Z,3.20
2018-12-02T09:23:01.461Z,3.30
2018-12-02T09:25:30.494Z,3.00
2018-12-02T09:27:59.415Z,3.83
2018-12-02T09:30:29.565Z,3.70
2018-12-02T09:32:58.653Z,3.03
2018-12-02T09:35:27.940Z,3.50
2018-12-02T09:37:56.862Z,3.47
2018-12-02T09:40:25.852Z,3.33
2018-12-02T09:42:55.629Z,3.40
2018-12-02T09:45:27.688Z,3.47
2018-12-02T09:47:58.962Z,3.57
2018-12-02T09:50:28.236Z,3.40
2018-12-02T09:52:57.159Z,3.10
2018-12-02T09:55:29.638Z,3.60
2018-12-02T09:57:58.827Z,3.60
2018-12-02T10:00:33.899Z,3.87
2018-12-02T10:02:56.910Z,3.90
2018-12-02T10:05:32.285Z,3.63
2018-12-02T10:08:01.887Z,4.77
2018-12-02T10:10:30.998Z,4.00
2018-12-02T10:13:04.086Z,4.10
2018-12-02T10:15:33.003Z,3.93
2018-12-02T10:18:02.225Z,4.20
2018-12-02T10:20:31.107Z,3.97
2018-12-02T10:23:00.041Z,4.20
2018-12-02T10:25:29.032Z,4.43
2018-12-02T10:27:58.091Z,4.33
2018-12-02T10:30:27.076Z,4.40
2018-12-02T10:32:56.913Z,4.20
2018-12-02T10:35:25.988Z,3.70
2018-12-02T10:37:55.291Z,3.70
2018-12-02T10:40:25.259Z,4.37
2018-12-02T10:42:54.618Z,4.00
2018-12-02T10:45:25.500Z,4.07
2018-12-02T10:48:00.496Z,3.93
2018-12-02T10:50:30.641Z,3.50
2018-12-02T10:53:01.685Z,4.07
2018-12-02T10:55:47.227Z,3.13
2018-12-02T10:58:32.087Z,3.40
2018-12-02T11:01:07.103Z,3.67
2018-12-02T11:03:36.058Z,3.33
2018-12-02T11:06:05.056Z,3.07
2018-12-02T11:08:33.936Z,3.27
2018-12-02T11:11:02.819Z,3.00
2018-12-02T11:13:31.766Z,3.13
2018-12-02T11:16:00.931Z,2.97
2018-12-02T11:18:30.131Z,2.90
2018-12-02T11:20:59.048Z,3.17
2018-12-02T11:23:28.026Z,2.90
2018-12-02T11:25:56.979Z,3.47
2018-12-02T11:28:25.978Z,2.60
2018-12-02T11:30:54.916Z,2.93
2018-12-02T11:33:23.874Z,2.80
2018-12-02T11:35:52.939Z,2.83
2018-12-02T11:38:21.921Z,2.80
2018-12-02T11:40:50.974Z,3.23
2018-12-02T11:43:26.782Z,3.40
2018-12-02T11:45:56.012Z,3.33
2018-12-02T11:48:25.088Z,2.60
2018-12-02T11:50:54.036Z,2.67
2018-12-02T11:53:23.153Z,3.00
2018-12-02T11:55:52.245Z,2.60
2018-12-02T11:58:21.185Z,3.10
2018-12-02T12:00:50.115Z,2.70
2018-12-02T12:03:19.091Z,2.23
2018-12-02T12:05:48.144Z,1.83
2018-12-02T12:08:17.233Z,2.23
2018-12-02T12:10:46.306Z,2.57
2018-12-02T12:13:16.193Z,2.30
2018-12-02T12:15:45.220Z,2.53
2018-12-02T12:18:14.197Z,2.17
2018-12-02T12:20:43.673Z,2.30
2018-12-02T12:23:16.662Z,2.23
2018-12-02T12:25:45.696Z,2.10
2018-12-02T12:28:16.812Z,2.07
2018-12-02T12:30:45.894Z,2.00
2018-12-02T12:33:15.150Z,1.87
2018-12-02T12:35:46.760Z,1.90
2018-12-02T12:38:15.672Z,1.97
2018-12-02T12:40:45.422Z,1.77
2018-12-02T12:43:21.771Z,1.70
2018-12-02T12:45:50.770Z,1.90
2018-12-02T12:48:19.803Z,1.63
2018-12-02T12:50:48.664Z,1.87
2018-12-02T12:53:17.625Z,2.23
2018-12-02T12:55:50.806Z,2.00
2018-12-02T12:58:16.790Z,2.00
2018-12-02T13:00:45.925Z,1.70
2018-12-02T13:03:14.859Z,2.00
2018-12-02T13:05:44.215Z,1.90
2018-12-02T13:08:14.578Z,2.03
2018-12-02T13:10:43.517Z,2.10
2018-12-02T13:13:12.379Z,2.30
2018-12-02T13:15:41.293Z,2.10
2018-12-02T13:18:10.942Z,1.97
2018-12-02T13:20:45.634Z,2.23
2018-12-02T13:23:14.545Z,2.30
2018-12-02T13:25:43.688Z,2.40
2018-12-02T13:28:12.626Z,1.70
2018-12-02T13:30:41.858Z,1.60
2018-12-02T13:33:10.832Z,1.70
2018-12-02T13:35:40.308Z,1.60
2018-12-02T13:38:09.251Z,1.63
2018-12-02T13:40:39.934Z,1.70
2018-12-02T13:43:13.003Z,1.70
2018-12-02T13:45:42.229Z,1.47
2018-12-02T13:48:11.195Z,1.63
2018-12-02T13:50:40.139Z,1.73
2018-12-02T13:53:09.401Z,1.53
2018-12-02T13:55:38.460Z,1.53
2018-12-02T13:58:07.620Z,1.80
2018-12-02T14:00:37.979Z,1.63
2018-12-02T14:03:09.169Z,1.50
2018-12-02T14:05:43.396Z,1.27
2018-12-02T14:08:12.386Z,1.23
2018-12-02T14:10:41.314Z,1.13
2018-12-02T14:13:14.918Z,1.20
2018-12-02T14:16:14.491Z,1.00
2018-12-02T14:18:44.664Z,1.30
2018-12-02T14:21:14.346Z,1.00
2018-12-02T14:23:44.537Z,0.90
2018-12-02T14:26:15.627Z,1.17
2018-12-02T14:28:52.892Z,2.20
2018-12-02T14:31:21.839Z,1.90
2018-12-02T14:33:52.087Z,1.93
2018-12-02T14:36:21.212Z,1.83
2018-12-02T14:38:50.772Z,1.70
2018-12-02T14:41:20.805Z,1.40
2018-12-02T14:43:51.217Z,1.17
2018-12-02T14:46:20.748Z,1.13
2018-12-02T14:48:50.001Z,0.97
2018-12-02T14:51:19.574Z,1.10
2018-12-02T14:53:50.621Z,1.50
2018-12-02T14:56:19.562Z,1.10
2018-12-02T14:58:48.500Z,1.20
2018-12-02T15:01:17.597Z,1.13
2018-12-02T15:03:46.540Z,1.10
2018-12-02T15:06:14.458Z,1.07
2018-12-02T15:08:41.986Z,1.30
2018-12-02T15:11:09.448Z,1.30
2018-12-02T15:13:37.305Z,1.10
2018-12-02T15:16:05.228Z,1.10
2018-12-02T15:18:32.888Z,1.10
2018-12-02T15:21:00.380Z,1.17
2018-12-02T15:23:27.833Z,1.30
2018-12-02T15:25:55.420Z,1.13
2018-12-02T15:28:22.998Z,1.10
2018-12-02T15:30:50.621Z,1.10
2018-12-02T15:33:18.144Z,1.20
2018-12-02T15:35:45.564Z,1.37
2018-12-02T15:38:16.000Z,1.73
2018-12-02T15:40:43.660Z,1.10
2018-12-02T15:43:11.125Z,1.50
2018-12-02T15:45:39.311Z,1.73
2018-12-02T15:48:06.852Z,2.00
2018-12-02T15:50:34.354Z,1.67
2018-12-02T15:53:02.038Z,1.70
2018-12-02T15:55:31.810Z,1.50
2018-12-02T15:58:00.649Z,1.60
2018-12-02T16:00:29.439Z,2.00
2018-12-02T16:02:56.918Z,1.50
2018-12-02T16:05:24.512Z,1.20
2018-12-02T16:07:52.105Z,1.30
2018-12-02T16:10:19.564Z,1.50
2018-12-02T16:12:48.200Z,1.50
2018-12-02T16:15:19.747Z,4.73
2018-12-02T16:17:48.500Z,2.03
2018-12-02T16:20:22.166Z,1.40
2018-12-02T16:22:49.731Z,2.03
2018-12-02T16:25:17.183Z,1.83
2018-12-02T16:27:44.629Z,1.30
2018-12-02T16:30:15.244Z,1.40
2018-12-02T16:32:45.545Z,1.50
2018-12-02T16:35:14.166Z,1.70
2018-12-02T16:37:41.954Z,1.60
2018-12-02T16:40:13.829Z,1.40
2018-12-02T16:42:44.258Z,1.80
2018-12-02T16:45:12.917Z,2.13
2018-12-02T16:47:40.969Z,1.67
2018-12-02T16:50:16.159Z,1.33
2018-12-02T16:52:43.881Z,1.67
2018-12-02T16:55:14.389Z,1.90
2018-12-02T16:57:44.361Z,1.70
2018-12-02T17:00:15.397Z,1.97
2018-12-02T17:02:43.272Z,1.80
2018-12-02T17:05:11.419Z,1.97
2018-12-02T17:07:39.150Z,2.10
2018-12-02T17:10:10.043Z,2.00
2018-12-02T17:12:37.733Z,1.90
2018-12-02T17:15:09.352Z,2.20
2018-12-02T17:17:37.002Z,2.10
2018-12-02T17:20:09.485Z,2.80
2018-12-02T17:22:37.138Z,2.90
2018-12-02T17:25:06.829Z,2.87
2018-12-02T17:27:34.657Z,2.77
2018-12-02T17:30:02.466Z,2.67
2018-12-02T17:32:30.562Z,2.20
2018-12-02T17:34:58.575Z,2.13
2018-12-02T17:37:26.240Z,2.20
2018-12-02T17:39:55.931Z,2.57
2018-12-02T17:42:23.631Z,3.00
2018-12-02T17:44:51.381Z,2.60
2018-12-02T17:47:19.101Z,2.53
2018-12-02T17:49:46.741Z,2.80
2018-12-02T17:52:14.639Z,3.83
2018-12-02T17:54:42.270Z,2.00
2018-12-02T17:57:10.981Z,3.07
2018-12-02T17:59:38.632Z,3.43
2018-12-02T18:02:06.820Z,3.80
2018-12-02T18:04:34.727Z,2.90
2018-12-02T18:07:03.250Z,3.50
2018-12-02T18:09:31.032Z,4.50
2018-12-02T18:11:59.975Z,5.43
2018-12-02T18:14:27.654Z,3.67
2018-12-02T18:16:55.204Z,4.97
2018-12-02T18:19:30.156Z,4.00
2018-12-02T18:21:58.088Z,4.10
2018-12-02T18:24:25.778Z,3.53
2018-12-02T18:26:53.383Z,4.20
2018-12-02T18:29:20.929Z,4.40
2018-12-02T18:31:48.553Z,4.73
2018-12-02T18:34:16.340Z,5.10
2018-12-02T18:36:44.193Z,5.10
2018-12-02T18:39:17.306Z,4.53
2018-12-02T18:41:49.763Z,4.77
2018-12-02T18:44:18.006Z,4.40
2018-12-02T18:46:45.700Z,5.17
2018-12-02T18:49:13.129Z,5.97
2018-12-02T18:51:40.936Z,5.27
2018-12-02T18:54:09.725Z,6.60
2018-12-02T18:56:38.697Z,6.07
2018-12-02T18:59:06.271Z,5.50
2018-12-02T19:01:33.923Z,6.27
2018-12-02T19:04:01.842Z,5.43
2018-12-02T19:06:29.397Z,6.40
2018-12-02T19:08:57.528Z,6.47
2018-12-02T19:11:25.162Z,6.77
2018-12-02T19:13:53.196Z,6.80
2018-12-02T19:16:20.800Z,6.83
2018-12-02T19:18:49.274Z,5.40
2018-12-02T19:21:21.249Z,6.17
2018-12-02T19:23:48.836Z,5.60
2018-12-02T19:26:16.405Z,4.70
2018-12-02T19:28:43.953Z,5.20
2018-12-02T19:31:11.543Z,6.60
2018-12-02T19:33:39.060Z,5.50
2018-12-02T19:36:16.661Z,7.27
2018-12-02T19:38:44.238Z,5.40
2018-12-02T19:41:11.735Z,6.17
2018-12-02T19:43:39.283Z,4.47
2018-12-02T19:46:06.877Z,4.00
2018-12-02T19:48:34.858Z,5.23
2018-12-02T19:51:03.672Z,5.07
2018-12-02T19:53:31.493Z,4.33
2018-12-02T19:55:59.159Z,3.60
2018-12-02T19:58:26.890Z,4.33
2018-12-02T20:00:54.609Z,4.50
2018-12-02T20:03:22.318Z,3.77
2018-12-02T20:05:50.230Z,5.57
2018-12-02T20:08:18.062Z,5.03
2018-12-02T20:10:51.463Z,5.13
2018-12-02T20:13:20.103Z,5.10
2018-12-02T20:15:54.688Z,5.80
2018-12-02T20:18:22.277Z,4.70
2018-12-02T20:20:53.146Z,6.07
2018-12-02T20:23:27.523Z,5.33
2018-12-02T20:25:56.659Z,5.37
2018-12-02T20:28:29.227Z,3.97
2018-12-02T20:30:56.927Z,4.97
2018-12-02T20:33:24.750Z,5.27
2018-12-02T20:35:52.489Z,7.40
2018-12-02T20:38:26.814Z,7.10
2018-12-02T20:40:54.528Z,8.23
2018-12-02T20:43:22.289Z,5.73
2018-12-02T20:45:49.829Z,5.77
2018-12-02T20:48:17.453Z,5.13
2018-12-02T20:50:45.487Z,7.53
2018-12-02T20:53:16.216Z,6.00
2018-12-02T20:55:42.317Z,5.17
2018-12-02T20:58:09.822Z,5.67
2018-12-02T21:00:37.349Z,6.27
2018-12-02T21:03:14.772Z,6.20
2018-12-02T21:05:50.511Z,5.57
2018-12-02T21:08:18.187Z,5.73
2018-12-02T21:10:45.980Z,6.03
2018-12-02T21:13:13.692Z,6.53
2018-12-02T21:15:41.528Z,7.00
2018-12-02T21:18:10.448Z,5.60
2018-12-02T21:20:38.168Z,6.90
2018-12-02T21:23:06.098Z,6.10
2018-12-02T21:25:33.636Z,6.90
2018-12-02T21:28:01.203Z,7.70
2018-12-02T21:30:29.378Z,7.73
2018-12-02T21:32:56.909Z,7.43
2018-12-02T21:35:24.586Z,35.23
2018-12-02T21:37:53.599Z,8.03
2018-12-02T21:40:21.229Z,5.13
2018-12-02T21:42:48.916Z,5.30
2018-12-02T21:45:17.973Z,4.83
2018-12-02T21:47:47.884Z,5.90
2018-12-02T21:50:22.793Z,6.17
2018-12-02T21:52:50.411Z,4.90
2018-12-02T21:55:17.951Z,5.50
2018-12-02T21:57:46.693Z,5.20
2018-12-02T22:00:20.704Z,5.40
2018-12-02T22:02:49.040Z,5.57
2018-12-02T22:05:16.691Z,5.40
2018-12-02T22:07:44.378Z,5.40
2018-12-02T22:10:13.834Z,5.23
2018-12-02T22:12:41.416Z,5.40
2018-12-02T22:15:09.954Z,5.27
2018-12-02T22:17:37.645Z,5.17
2018-12-02T22:20:16.067Z,5.17
2018-12-02T22:22:43.639Z,4.47
2018-12-02T22:25:15.108Z,5.50
2018-12-02T22:27:44.268Z,5.17
2018-12-02T22:30:15.758Z,5.27
2018-12-02T22:32:43.381Z,5.50
2018-12-02T22:35:11.907Z,4.70
2018-12-02T22:37:39.503Z,4.87
2018-12-02T22:40:08.592Z,5.50
2018-12-02T22:42:36.459Z,5.10
2018-12-02T22:45:06.151Z,4.00
2018-12-02T22:47:33.623Z,4.50
2018-12-02T22:50:01.219Z,4.43
2018-12-02T22:52:28.703Z,4.60
2018-12-02T22:54:56.190Z,5.50
2018-12-02T22:57:23.871Z,6.27
2018-12-02T22:59:51.476Z,5.20
2018-12-02T23:02:24.685Z,5.60
2018-12-02T23:04:52.225Z,5.57
2018-12-02T23:07:19.701Z,6.53
2018-12-02T23:09:47.183Z,6.97
2018-12-02T23:12:14.682Z,6.93
2018-12-02T23:14:42.212Z,7.63
2018-12-02T23:17:17.245Z,7.67
2018-12-02T23:19:44.822Z,8.63
2018-12-02T23:22:12.275Z,7.90
2018-12-02T23:24:39.805Z,9.80
2018-12-02T23:27:07.329Z,10.03
2018-12-02T23:29:34.816Z,9.27
2018-12-02T23:32:02.312Z,9.77
2018-12-02T23:34:29.843Z,10.60
2018-12-02T23:36:58.472Z,9.03
2018-12-02T23:39:25.925Z,10.83
2018-12-02T23:41:53.345Z,9.77
2018-12-02T23:44:21.123Z,9.77
2018-12-02T23:46:48.676Z,8.70
2018-12-02T23:49:16.267Z,7.30
2018-12-02T23:51:43.838Z,5.63
2018-12-02T23:54:11.780Z,5.97
2018-12-02T23:56:39.263Z,5.00
2018-12-02T23:59:06.659Z,4.50
